createdAt,value
2023-04-20T00:00:19.252Z,6.18
2023-04-20T00:04:56.887Z,6.16
2023-04-20T00:09:15.716Z,6.18
2023-04-20T00:13:33.689Z,6.01
2023-04-20T00:17:51.748Z,5.78
2023-04-20T00:22:09.848Z,5.47
2023-04-20T00:26:27.553Z,5.40
2023-04-20T00:30:45.187Z,5.42
2023-04-20T00:35:03.076Z,5.37
2023-04-20T00:39:20.710Z,5.39
2023-04-20T00:43:38.432Z,5.42
2023-04-20T00:47:56.198Z,5.20
2023-04-20T00:52:14.017Z,5.09
2023-04-20T00:56:31.603Z,5.01
2023-04-20T01:00:49.212Z,4.95
2023-04-20T01:05:07.270Z,4.70
2023-04-20T01:09:24.638Z,4.53
2023-04-20T01:13:43.324Z,4.30
2023-04-20T01:18:01.134Z,4.09
2023-04-20T01:22:21.469Z,4.05
2023-04-20T01:26:39.092Z,4.06
2023-04-20T01:30:56.918Z,4.08
2023-04-20T01:35:16.000Z,4.01
2023-04-20T01:39:38.398Z,3.71
2023-04-20T01:43:56.133Z,3.66
2023-04-20T01:48:13.814Z,3.75
2023-04-20T01:52:31.031Z,3.98
2023-04-20T01:56:48.764Z,4.20
2023-04-20T02:01:06.330Z,4.45
2023-04-20T02:05:24.127Z,4.73
2023-04-20T02:09:41.682Z,4.91
2023-04-20T02:14:00.269Z,4.99
2023-04-20T02:18:18.049Z,4.81
2023-04-20T02:22:36.602Z,4.67
2023-04-20T02:26:53.992Z,4.61
2023-04-20T02:31:13.105Z,4.71
2023-04-20T02:35:30.951Z,4.96
2023-04-20T02:39:48.707Z,4.95
2023-04-20T02:44:06.261Z,5.05
2023-04-20T02:48:24.022Z,5.04
2023-04-20T02:52:41.595Z,5.18
2023-04-20T02:56:59.316Z,5.24
2023-04-20T03:01:16.950Z,5.33
2023-04-20T03:05:34.600Z,5.46
2023-04-20T03:09:52.191Z,5.54
2023-04-20T03:14:09.854Z,5.51
2023-04-20T03:18:27.506Z,5.48
2023-04-20T03:22:45.211Z,5.54
2023-04-20T03:27:02.813Z,5.48
2023-04-20T03:31:20.564Z,5.54
2023-04-20T03:35:39.618Z,5.63
2023-04-20T03:39:57.553Z,5.71
2023-04-20T03:44:15.432Z,5.80
2023-04-20T03:48:34.153Z,5.81
2023-04-20T03:52:51.816Z,5.98
2023-04-20T03:57:09.451Z,6.15
2023-04-20T04:01:27.362Z,6.26
2023-04-20T04:05:44.953Z,6.36
2023-04-20T04:14:55.117Z,6.68
2023-04-20T04:19:17.955Z,6.70
2023-04-20T04:23:37.505Z,6.63
2023-04-20T04:27:55.212Z,6.39
2023-04-20T04:32:18.206Z,6.29
2023-04-20T04:36:54.299Z,6.36
2023-04-20T04:41:30.789Z,6.54
2023-04-20T04:45:50.123Z,6.70
2023-04-20T04:50:10.870Z,6.78
2023-04-20T04:54:28.502Z,6.68
2023-04-20T04:58:46.595Z,7.05
2023-04-20T05:03:04.510Z,7.36
2023-04-20T05:07:22.601Z,7.72
2023-04-20T05:11:40.070Z,8.15
2023-04-20T05:15:57.899Z,8.20
2023-04-20T05:20:15.716Z,8.30
2023-04-20T05:24:33.365Z,8.54
2023-04-20T05:28:51.923Z,8.79
2023-04-20T05:33:09.471Z,8.77
2023-04-20T05:37:28.180Z,8.94
2023-04-20T05:41:47.796Z,9.44
2023-04-20T05:46:05.657Z,9.88
2023-04-20T05:50:24.876Z,10.20
2023-04-20T05:54:42.564Z,10.53
2023-04-20T05:59:00.654Z,10.32
2023-04-20T06:03:18.791Z,10.43
2023-04-20T06:07:37.514Z,10.43
2023-04-20T06:11:55.167Z,10.91
2023-04-20T06:16:12.728Z,11.70
2023-04-20T06:20:31.154Z,11.98
2023-04-20T06:24:48.711Z,12.25
2023-04-20T06:29:06.661Z,12.09
2023-04-20T06:33:24.236Z,12.37
2023-04-20T06:37:41.952Z,12.57
2023-04-20T06:41:59.766Z,13.11
2023-04-20T06:46:17.624Z,13.26
2023-04-20T06:50:35.468Z,13.47
2023-04-20T06:54:53.546Z,13.50
2023-04-20T06:59:11.034Z,14.18
2023-04-20T07:03:28.966Z,14.05
2023-04-20T07:07:46.549Z,14.83
2023-04-20T07:12:04.348Z,14.64
2023-04-20T07:16:21.898Z,14.59
2023-04-20T07:20:40.098Z,14.70
2023-04-20T07:24:57.524Z,14.64
2023-04-20T07:29:15.613Z,15.08
2023-04-20T07:33:35.890Z,15.73
2023-04-20T07:37:53.850Z,15.88
2023-04-20T07:42:11.540Z,15.78
2023-04-20T07:46:29.417Z,15.42
2023-04-20T07:50:47.250Z,15.77
2023-04-20T07:55:08.468Z,16.04
2023-04-20T07:59:26.310Z,16.69
2023-04-20T08:03:44.141Z,16.98
2023-04-20T08:08:01.954Z,17.18
2023-04-20T08:12:19.496Z,17.72
2023-04-20T08:16:38.365Z,17.40
2023-04-20T08:20:56.230Z,17.26
2023-04-20T08:25:13.829Z,17.61
2023-04-20T08:29:31.617Z,17.12
2023-04-20T08:33:49.501Z,17.38
2023-04-20T08:38:07.426Z,17.73
2023-04-20T08:42:25.248Z,16.94
2023-04-20T08:46:47.959Z,17.26
2023-04-20T08:51:06.426Z,17.87
2023-04-20T08:55:23.520Z,16.29
2023-04-20T08:59:41.357Z,18.22
2023-04-20T09:04:00.834Z,19.58
2023-04-20T09:08:18.701Z,19.97
2023-04-20T09:12:43.348Z,17.69
2023-04-20T09:17:02.499Z,17.14
2023-04-20T09:21:22.145Z,19.44
2023-04-20T09:25:41.342Z,19.96
2023-04-20T09:30:01.651Z,19.72
2023-04-20T09:34:21.298Z,18.93
2023-04-20T09:38:39.030Z,18.53
2023-04-20T09:43:03.253Z,18.28
2023-04-20T09:47:23.086Z,16.64
2023-04-20T09:51:46.721Z,16.24
2023-04-20T09:56:07.208Z,15.84
2023-04-20T10:00:28.353Z,15.73
2023-04-20T10:04:56.905Z,16.41
2023-04-20T10:09:24.838Z,16.48
2023-04-20T10:13:42.256Z,16.80
2023-04-20T10:18:00.741Z,17.26
2023-04-20T10:22:33.692Z,17.97
2023-04-20T10:26:51.452Z,17.83
2023-04-20T10:31:13.300Z,17.66
2023-04-20T10:35:51.950Z,17.21
2023-04-20T10:40:10.808Z,17.00
2023-04-20T10:44:28.682Z,16.57
2023-04-20T10:48:53.858Z,16.11
2023-04-20T10:53:22.344Z,15.93
2023-04-20T10:57:44.913Z,17.04
2023-04-20T11:02:08.110Z,16.56
2023-04-20T11:06:26.348Z,16.50
2023-04-20T11:10:43.995Z,16.59
2023-04-20T11:15:03.454Z,16.53
2023-04-20T11:19:29.617Z,16.73
2023-04-20T11:23:50.317Z,16.93
2023-04-20T11:28:11.830Z,16.86
2023-04-20T11:32:29.675Z,18.56
2023-04-20T11:36:47.361Z,21.41
2023-04-20T11:41:05.123Z,20.76
2023-04-20T11:45:23.558Z,20.49
2023-04-20T11:49:41.201Z,27.60
2023-04-20T11:53:58.748Z,24.40
2023-04-20T11:58:16.402Z,23.94
2023-04-20T12:02:34.039Z,20.79
2023-04-20T12:06:51.744Z,20.04
2023-04-20T12:11:09.480Z,18.88
2023-04-20T12:15:28.011Z,17.77
2023-04-20T12:19:45.543Z,16.90
2023-04-20T12:24:04.503Z,17.24
2023-04-20T12:28:22.056Z,17.57
2023-04-20T12:32:39.946Z,17.34
2023-04-20T12:36:57.356Z,18.15
2023-04-20T12:41:15.915Z,18.26
2023-04-20T12:45:34.130Z,18.76
2023-04-20T12:49:51.870Z,19.94
2023-04-20T12:54:09.516Z,25.44
2023-04-20T12:58:27.351Z,34.90
2023-04-20T13:02:45.261Z,33.90
2023-04-20T13:07:02.928Z,24.36
2023-04-20T13:11:20.668Z,28.51
2023-04-20T13:15:39.679Z,28.25
2023-04-20T13:19:57.730Z,32.54
2023-04-20T13:24:15.833Z,27.01
2023-04-20T13:28:33.881Z,22.33
2023-04-20T13:32:51.851Z,21.13
2023-04-20T13:37:09.601Z,21.78
2023-04-20T13:41:27.167Z,22.24
2023-04-20T13:45:44.968Z,21.83
2023-04-20T13:50:03.780Z,22.33
2023-04-20T13:54:21.886Z,28.49
2023-04-20T13:58:39.283Z,37.32
2023-04-20T14:02:57.999Z,39.52
2023-04-20T14:07:15.739Z,35.95
2023-04-20T14:11:33.658Z,28.35
2023-04-20T14:15:52.134Z,25.22
2023-04-20T14:20:11.009Z,23.43
2023-04-20T14:24:28.751Z,21.20
2023-04-20T14:28:47.472Z,19.61
2023-04-20T14:33:05.663Z,18.56
2023-04-20T14:37:25.283Z,18.26
2023-04-20T14:41:42.907Z,18.42
2023-04-20T14:46:01.126Z,18.38
2023-04-20T14:50:18.850Z,19.21
2023-04-20T14:54:36.420Z,19.70
2023-04-20T14:58:54.259Z,20.38
2023-04-20T15:03:11.784Z,18.84
2023-04-20T15:07:29.601Z,18.07
2023-04-20T15:11:47.164Z,27.01
2023-04-20T15:16:05.195Z,31.96
2023-04-20T15:20:23.360Z,25.30
2023-04-20T15:24:41.538Z,23.26
2023-04-20T15:28:59.036Z,22.26
2023-04-20T15:33:16.308Z,26.74
2023-04-20T15:37:33.884Z,22.62
2023-04-20T15:41:52.463Z,20.32
2023-04-20T15:46:10.301Z,18.39
2023-04-20T15:50:28.160Z,17.55
2023-04-20T15:54:47.761Z,16.86
2023-04-20T15:59:05.633Z,16.12
2023-04-20T16:03:23.356Z,15.77
2023-04-20T16:07:41.423Z,16.91
2023-04-20T16:11:59.069Z,18.29
2023-04-20T16:16:16.689Z,28.58
2023-04-20T16:20:34.560Z,23.61
2023-04-20T16:24:52.016Z,19.94
2023-04-20T16:29:10.287Z,19.24
2023-04-20T16:33:27.975Z,17.94
2023-04-20T16:37:46.031Z,16.81
2023-04-20T16:42:04.234Z,16.05
2023-04-20T16:46:22.632Z,15.55
2023-04-20T16:50:42.257Z,15.19
2023-04-20T16:54:59.885Z,14.94
2023-04-20T16:59:17.727Z,14.56
2023-04-20T17:03:35.449Z,14.35
2023-04-20T17:07:53.512Z,14.16
2023-04-20T17:12:11.264Z,14.04
2023-04-20T17:16:29.398Z,13.78
2023-04-20T17:20:48.066Z,13.46
2023-04-20T17:25:07.802Z,12.82
2023-04-20T17:29:25.571Z,12.24
2023-04-20T17:33:45.252Z,11.79
2023-04-20T17:38:02.894Z,11.66
2023-04-20T17:42:20.565Z,11.66
2023-04-20T17:46:37.792Z,11.66
2023-04-20T17:50:58.136Z,11.67
2023-04-20T17:55:16.345Z,11.61
2023-04-20T17:59:34.039Z,11.54
2023-04-20T18:03:51.944Z,11.38
2023-04-20T18:08:10.898Z,11.01
2023-04-20T18:12:28.525Z,10.73
2023-04-20T18:16:46.524Z,10.27
2023-04-20T18:21:04.702Z,9.77
2023-04-20T18:25:22.978Z,9.32
2023-04-20T18:29:40.503Z,8.91
2023-04-20T18:33:58.285Z,8.61
2023-04-20T18:38:15.779Z,8.36
2023-04-20T18:42:33.570Z,8.06
2023-04-20T18:46:51.176Z,7.91
2023-04-20T18:51:08.950Z,7.71
2023-04-20T18:55:26.583Z,7.67
2023-04-20T18:59:44.289Z,7.58
2023-04-20T19:04:01.988Z,7.44
2023-04-20T19:08:19.902Z,7.40
2023-04-20T19:12:38.693Z,7.27
2023-04-20T19:16:56.411Z,7.24
2023-04-20T19:21:14.197Z,7.27
2023-04-20T19:25:32.168Z,7.55
2023-04-20T19:29:50.690Z,7.82
2023-04-20T19:34:08.656Z,8.22
2023-04-20T19:38:26.636Z,8.50
2023-04-20T19:42:44.718Z,8.85
2023-04-20T19:47:02.307Z,9.11
2023-04-20T19:51:19.954Z,9.27
2023-04-20T19:55:37.573Z,9.44
2023-04-20T19:59:55.436Z,9.50
2023-04-20T20:04:13.242Z,9.51
2023-04-20T20:08:31.526Z,9.46
2023-04-20T20:12:49.085Z,9.22
2023-04-20T20:17:07.207Z,8.74
2023-04-20T20:21:24.759Z,8.26
2023-04-20T20:25:42.765Z,7.87
2023-04-20T20:30:00.365Z,7.61
2023-04-20T20:34:18.121Z,7.46
2023-04-20T20:38:35.909Z,7.20
2023-04-20T20:42:54.711Z,7.02
2023-04-20T20:47:12.381Z,6.73
2023-04-20T20:51:29.991Z,6.54
2023-04-20T20:55:47.518Z,6.26
2023-04-20T21:00:10.633Z,6.06
2023-04-20T21:04:30.148Z,5.87
2023-04-20T21:08:48.970Z,5.61
2023-04-20T21:13:07.522Z,5.33
2023-04-20T21:17:25.621Z,5.11
2023-04-20T21:21:43.236Z,5.05
2023-04-20T21:26:01.365Z,4.96
2023-04-20T21:30:18.968Z,4.81
2023-04-20T21:34:36.685Z,4.73
2023-04-20T21:38:54.447Z,4.66
2023-04-20T21:43:12.645Z,4.56
2023-04-20T21:47:30.383Z,4.47
2023-04-20T21:51:48.023Z,4.45
2023-04-20T21:56:06.100Z,4.43
2023-04-20T22:00:23.874Z,4.37
2023-04-20T22:04:41.710Z,4.30
2023-04-20T22:08:59.314Z,4.25
2023-04-20T22:13:17.325Z,4.18
2023-04-20T22:17:35.122Z,4.12
2023-04-20T22:21:52.751Z,4.03
2023-04-20T22:26:10.642Z,3.95
2023-04-20T22:30:28.376Z,3.89
2023-04-20T22:34:45.870Z,3.81
2023-04-20T22:39:03.551Z,3.75
2023-04-20T22:43:21.787Z,3.73
2023-04-20T22:47:39.691Z,3.69
2023-04-20T22:51:57.893Z,3.70
2023-04-20T22:56:15.451Z,3.66
2023-04-20T23:00:33.394Z,3.60
2023-04-20T23:04:51.626Z,3.63
2023-04-20T23:09:09.210Z,3.61
2023-04-20T23:13:30.180Z,3.54
2023-04-20T23:17:47.895Z,3.54
2023-04-20T23:22:05.481Z,3.67
2023-04-20T23:26:23.876Z,3.85
2023-04-20T23:30:41.482Z,4.06
2023-04-20T23:34:58.892Z,4.26
2023-04-20T23:39:16.974Z,4.34
2023-04-20T23:43:35.066Z,4.50
2023-04-20T23:47:53.622Z,4.64
2023-04-20T23:52:11.245Z,4.80
2023-04-20T23:56:29.035Z,5.02
